Time;durP1;ratioP1;P1;durP2;ratioP2;P2;SDS_P1;SDS_P2;PMS_P1;PMS_P2;Temp;Humidity;BMP_temperature;BMP_pressure;BME280_temperature;BME280_humidity;BME280_pressure;Samples;Min_cycle;Max_cycle;Signal;HPM_P1;HPM_P2
2022/02/12 00:00:41;;;;;;;5.35;2.28;;;12.60;60.10;;;;;;5032459;28;20042;-75
2022/02/12 00:03:08;;;;;;;7.10;3.05;;;12.60;60.20;;;;;;5032097;28;20041;-75
2022/02/12 00:05:33;;;;;;;7.05;2.50;;;12.60;60.00;;;;;;5031573;28;20045;-75
2022/02/12 00:07:59;;;;;;;6.35;2.15;;;12.60;60.00;;;;;;5029304;28;20371;-74
2022/02/12 00:10:27;;;;;;;7.28;2.50;;;12.50;59.90;;;;;;5032333;28;20471;-75
2022/02/12 00:12:53;;;;;;;5.60;2.25;;;12.50;59.70;;;;;;5032263;28;20360;-75
2022/02/12 00:15:19;;;;;;;7.13;2.40;;;12.40;60.10;;;;;;5032102;28;20168;-74
2022/02/12 00:17:46;;;;;;;9.60;2.85;;;12.40;60.20;;;;;;5031930;28;20121;-74
2022/02/12 00:20:13;;;;;;;6.13;2.03;;;12.40;60.30;;;;;;5031844;28;20045;-74
2022/02/12 00:22:39;;;;;;;4.50;2.03;;;12.40;60.00;;;;;;5031705;28;20056;-75
2022/02/12 00:25:06;;;;;;;10.90;2.40;;;12.30;60.30;;;;;;5031827;28;20049;-75
2022/02/12 00:27:31;;;;;;;8.55;2.30;;;12.30;60.10;;;;;;4998212;28;20074;-74
2022/02/12 00:29:57;;;;;;;7.72;2.00;;;12.30;60.20;;;;;;5031906;28;20071;-74
2022/02/12 00:32:24;;;;;;;6.32;1.92;;;12.30;60.20;;;;;;5032447;28;20345;-74
2022/02/12 00:34:50;;;;;;;5.00;1.95;;;12.30;60.10;;;;;;5014492;28;20387;-75
2022/02/12 00:37:16;;;;;;;6.25;1.75;;;12.30;60.00;;;;;;5032134;28;20090;-75
2022/02/12 00:39:41;;;;;;;5.22;1.58;;;12.20;60.20;;;;;;5032038;28;20299;-74
2022/02/12 00:42:08;;;;;;;7.07;2.17;;;12.20;60.30;;;;;;5031656;28;20337;-74
2022/02/12 00:44:34;;;;;;;5.20;2.17;;;12.20;60.10;;;;;;5031487;28;20418;-75
2022/02/12 00:47:00;;;;;;;9.52;2.05;;;12.20;60.00;;;;;;5031220;28;20090;-74
2022/02/12 00:49:26;;;;;;;4.35;1.67;;;12.20;60.00;;;;;;5031748;28;20045;-75
2022/02/12 00:51:52;;;;;;;7.10;2.17;;;12.20;60.10;;;;;;5031199;28;20461;-75
2022/02/12 00:54:18;;;;;;;6.00;1.60;;;12.20;60.00;;;;;;5031150;28;20052;-74
2022/02/12 00:56:45;;;;;;;7.97;2.55;;;12.20;60.00;;;;;;5031398;28;20434;-75
2022/02/12 00:59:11;;;;;;;6.22;1.77;;;12.20;60.00;;;;;;5031597;28;20041;-74
2022/02/12 01:01:37;;;;;;;7.78;1.83;;;12.10;59.70;;;;;;5031455;28;20050;-74
2022/02/12 01:04:04;;;;;;;8.90;2.08;;;12.00;60.00;;;;;;5014100;28;20182;-75
2022/02/12 01:06:31;;;;;;;6.78;1.83;;;12.00;60.10;;;;;;5031765;28;20041;-75
2022/02/12 01:08:57;;;;;;;4.28;1.60;;;12.10;60.10;;;;;;5033531;28;20120;-73
2022/02/12 01:11:22;;;;;;;5.85;2.33;;;12.00;59.80;;;;;;5017474;28;20138;-74
2022/02/12 01:13:48;;;;;;;4.85;1.77;;;12.00;59.80;;;;;;5017442;28;20080;-74
2022/02/12 01:16:14;;;;;;;6.88;1.90;;;12.00;60.40;;;;;;5034591;28;20041;-73
2022/02/12 01:18:40;;;;;;;5.35;2.03;;;12.00;59.80;;;;;;5035332;28;20341;-75
2022/02/12 01:21:06;;;;;;;3.92;1.45;;;12.00;59.80;;;;;;5034453;28;20049;-74
2022/02/12 01:23:32;;;;;;;5.95;2.00;;;11.90;59.80;;;;;;5034293;28;20107;-74
2022/02/12 01:25:58;;;;;;;8.02;1.88;;;11.90;59.80;;;;;;5034443;28;20084;-73
2022/02/12 01:28:24;;;;;;;7.40;1.75;;;11.90;59.90;;;;;;5035125;28;20081;-75
2022/02/12 01:30:50;;;;;;;4.82;1.63;;;11.90;60.20;;;;;;5034831;28;20037;-75
2022/02/12 01:33:16;;;;;;;8.70;2.17;;;11.90;60.00;;;;;;5034586;28;20111;-75
2022/02/12 01:35:42;;;;;;;7.28;1.65;;;11.80;59.90;;;;;;5034331;28;20456;-74
2022/02/12 01:38:08;;;;;;;5.13;1.88;;;11.80;60.00;;;;;;5034467;28;20037;-75
2022/02/12 01:40:34;;;;;;;7.05;1.73;;;11.70;60.10;;;;;;5034376;28;20041;-74
2022/02/12 01:43:02;;;;;;;3.90;1.77;;;11.80;60.00;;;;;;5017343;28;20053;-75
2022/02/12 01:45:31;;;;;;;6.22;2.03;;;11.70;60.30;;;;;;5033794;28;20114;-74
2022/02/12 01:47:58;;;;;;;6.22;1.95;;;11.70;61.00;;;;;;5034122;28;20085;-74
2022/02/12 01:50:24;;;;;;;5.22;1.80;;;11.70;60.00;;;;;;5016791;28;20041;-73
2022/02/12 01:52:51;;;;;;;6.13;1.98;;;11.80;60.80;;;;;;5033836;28;20045;-74
2022/02/12 01:55:17;;;;;;;5.32;1.60;;;11.70;60.00;;;;;;5033947;28;20065;-75
2022/02/12 01:57:43;;;;;;;7.15;1.70;;;11.70;60.40;;;;;;5034050;28;20050;-74
2022/02/12 02:00:12;;;;;;;4.82;1.67;;;11.70;60.40;;;;;;5033804;28;20046;-74
2022/02/12 02:02:38;;;;;;;7.97;1.67;;;11.80;60.00;;;;;;5033654;28;20049;-74
2022/02/12 02:05:13;;;;;;;6.05;2.08;;;11.80;59.90;;;;;;5033500;28;20041;-73
2022/02/12 02:07:40;;;;;;;6.68;2.10;;;11.70;59.40;;;;;;5033704;28;20046;-74
2022/02/12 02:10:07;;;;;;;4.95;1.50;;;11.70;60.00;;;;;;5033727;28;20114;-74
2022/02/12 02:12:33;;;;;;;4.28;1.50;;;11.60;60.10;;;;;;5033902;28;20307;-73
2022/02/12 02:14:59;;;;;;;7.55;1.95;;;11.60;60.10;;;;;;5033211;28;20045;-74
2022/02/12 02:17:25;;;;;;;6.50;2.10;;;11.50;60.00;;;;;;5016554;28;20077;-74
2022/02/12 02:19:51;;;;;;;4.88;2.20;;;11.60;60.20;;;;;;5033429;28;20412;-74
2022/02/12 02:22:19;;;;;;;6.13;1.70;;;11.60;60.20;;;;;;5016360;28;20041;-73
2022/02/12 02:24:44;;;;;;;5.28;1.95;;;11.60;60.30;;;;;;5033705;28;20102;-74
2022/02/12 02:27:14;;;;;;;4.70;1.90;;;11.50;60.20;;;;;;5033669;28;20050;-74
2022/02/12 02:29:42;;;;;;;5.70;1.70;;;11.50;60.20;;;;;;5033503;28;20109;-74
2022/02/12 02:32:10;;;;;;;5.13;1.25;;;11.50;60.10;;;;;;5033868;28;20080;-74
2022/02/12 02:34:37;;;;;;;7.15;1.65;;;11.50;60.30;;;;;;5033526;28;20041;-74
2022/02/12 02:37:03;;;;;;;3.88;1.45;;;11.50;60.20;;;;;;5033664;28;20078;-75
2022/02/12 02:39:29;;;;;;;7.43;2.08;;;11.50;60.10;;;;;;5016120;28;20037;-74
2022/02/12 02:41:54;;;;;;;3.38;1.75;;;11.40;59.80;;;;;;5033204;28;20463;-74
2022/02/12 02:44:21;;;;;;;6.68;2.15;;;11.40;60.00;;;;;;5032957;28;20052;-74
2022/02/12 02:46:47;;;;;;;5.30;1.73;;;11.40;60.30;;;;;;5033695;28;20291;-73
2022/02/12 02:49:13;;;;;;;6.20;1.70;;;11.40;60.30;;;;;;5033447;28;20051;-75
2022/02/12 02:57:07;;;;;;;6.32;1.83;;;11.40;59.90;;;;;;5032898;28;20045;-74
2022/02/12 02:59:33;;;;;;;5.32;1.52;;;11.40;60.00;;;;;;5015623;28;20060;-74
2022/02/12 03:01:59;;;;;;;4.75;1.73;;;11.30;59.70;;;;;;5033176;28;20404;-74
2022/02/12 03:04:25;;;;;;;5.53;1.35;;;11.30;59.80;;;;;;5032829;28;20128;-74
2022/02/12 03:06:51;;;;;;;5.43;1.73;;;11.30;60.00;;;;;;5032747;28;20441;-75
2022/02/12 03:09:17;;;;;;;6.32;2.00;;;11.30;59.90;;;;;;5015284;28;20049;-74
2022/02/12 03:11:42;;;;;;;4.88;1.92;;;11.30;59.90;;;;;;5033084;28;20037;-75
2022/02/12 03:14:08;;;;;;;6.88;1.70;;;11.30;59.40;;;;;;5032623;28;20041;-74
2022/02/12 03:16:36;;;;;;;7.93;2.28;;;11.30;59.70;;;;;;5032640;28;20051;-74
2022/02/12 03:19:02;;;;;;;7.20;1.92;;;11.30;59.90;;;;;;5015346;28;20124;-74
2022/02/12 03:21:28;;;;;;;4.82;1.52;;;11.30;59.80;;;;;;5032882;28;20395;-73
2022/02/12 03:23:54;;;;;;;7.05;1.88;;;11.30;59.80;;;;;;5033078;28;20029;-74
2022/02/12 03:26:20;;;;;;;4.03;1.55;;;11.30;59.10;;;;;;5032899;28;20438;-74
2022/02/12 03:28:46;;;;;;;5.05;1.45;;;11.30;59.10;;;;;;5032669;28;20037;-74
2022/02/12 03:31:12;;;;;;;10.15;1.88;;;11.30;59.30;;;;;;5031739;28;20433;-74
2022/02/12 03:33:38;;;;;;;5.88;1.83;;;11.30;59.30;;;;;;5015163;28;20169;-75
2022/02/12 03:36:04;;;;;;;6.88;1.50;;;11.30;59.10;;;;;;5032481;28;20128;-73
2022/02/12 03:38:32;;;;;;;6.68;1.67;;;11.20;59.00;;;;;;5032768;28;20049;-74
2022/02/12 03:41:01;;;;;;;5.25;1.58;;;11.20;59.30;;;;;;5031967;28;20048;-74
2022/02/12 03:43:29;;;;;;;7.03;1.42;;;11.20;59.20;;;;;;5032309;28;20049;-75
2022/02/12 03:45:55;;;;;;;7.07;1.80;;;11.10;59.20;;;;;;5032346;28;20041;-73
2022/02/12 03:48:22;;;;;;;6.65;1.50;;;11.10;59.30;;;;;;5032164;28;20434;-74
2022/02/12 03:50:48;;;;;;;8.57;2.03;;;11.10;59.20;;;;;;5032487;28;20045;-73
2022/02/12 03:53:14;;;;;;;6.22;1.63;;;11.00;59.00;;;;;;5014387;28;20491;-74
2022/02/12 03:55:40;;;;;;;5.22;1.38;;;11.00;59.00;;;;;;5031938;28;20057;-74
2022/02/12 03:58:11;;;;;;;6.43;1.30;;;10.90;59.20;;;;;;5029006;28;20049;-74
2022/02/12 04:00:37;;;;;;;7.20;1.50;;;10.90;58.80;;;;;;5015018;28;20077;-74
2022/02/12 04:03:04;;;;;;;5.43;1.70;;;10.80;59.10;;;;;;5032812;28;20105;-74
2022/02/12 04:05:30;;;;;;;7.10;1.83;;;10.80;58.90;;;;;;5032318;28;20329;-74
2022/02/12 04:07:56;;;;;;;7.60;2.00;;;10.80;59.60;;;;;;5031931;28;20051;-74
2022/02/12 04:10:22;;;;;;;6.45;2.03;;;10.80;59.90;;;;;;5032522;28;20477;-73
2022/02/12 04:12:48;;;;;;;4.50;1.85;;;10.80;59.10;;;;;;5015038;28;20046;-74
2022/02/12 04:15:14;;;;;;;6.78;2.13;;;10.80;59.10;;;;;;5032675;28;20037;-74
2022/02/12 04:17:42;;;;;;;6.30;1.90;;;10.70;59.30;;;;;;5032093;28;20345;-73
2022/02/12 04:20:10;;;;;;;3.17;1.77;;;10.70;59.30;;;;;;5031849;28;20119;-74
2022/02/12 04:22:38;;;;;;;7.20;2.22;;;10.70;59.30;;;;;;5036171;28;20056;-73
2022/02/12 04:25:06;;;;;;;9.85;2.20;;;10.70;59.20;;;;;;5031732;28;20132;-74
2022/02/12 04:27:33;;;;;;;10.00;2.40;;;10.60;59.20;;;;;;5031874;28;20056;-73
2022/02/12 04:29:58;;;;;;;6.03;2.55;;;10.60;59.20;;;;;;5014871;28;20106;-74
2022/02/12 04:32:24;;;;;;;10.38;2.13;;;10.60;59.30;;;;;;5031809;28;20049;-73
2022/02/12 04:34:52;;;;;;;6.05;2.50;;;10.70;59.60;;;;;;5014245;28;20048;-74
2022/02/12 04:37:22;;;;;;;8.32;2.58;;;10.70;60.10;;;;;;5032356;28;20398;-74
2022/02/12 04:39:47;;;;;;;7.18;2.22;;;10.70;59.10;;;;;;5031798;28;20037;-73
2022/02/12 04:42:13;;;;;;;8.23;2.13;;;10.70;59.10;;;;;;5031974;28;20330;-74
2022/02/12 04:44:43;;;;;;;11.05;2.08;;;10.70;59.10;;;;;;5035051;28;20446;-73
2022/02/12 04:47:13;;;;;;;8.13;2.20;;;10.70;59.30;;;;;;5017994;28;20049;-74
2022/02/12 04:49:39;;;;;;;9.70;2.88;;;10.60;59.20;;;;;;5034619;28;20333;-75
2022/02/12 04:52:06;;;;;;;8.68;2.40;;;10.50;59.20;;;;;;5035277;28;20041;-74
2022/02/12 04:54:32;;;;;;;8.30;2.28;;;10.60;59.20;;;;;;5017178;28;20057;-75
2022/02/12 04:56:59;;;;;;;8.20;2.60;;;10.60;59.40;;;;;;5017504;28;20349;-75
2022/02/12 04:59:25;;;;;;;6.55;2.50;;;10.60;59.40;;;;;;5034831;28;20037;-74
2022/02/12 05:01:51;;;;;;;9.60;2.88;;;10.50;59.10;;;;;;5034152;28;20045;-74
2022/02/12 05:04:17;;;;;;;7.47;2.95;;;10.50;59.40;;;;;;5015479;28;20045;-74
2022/02/12 05:06:43;;;;;;;7.13;2.60;;;10.50;59.50;;;;;;4997980;28;20124;-73
2022/02/12 05:09:13;;;;;;;5.78;1.90;;;10.50;59.00;;;;;;5015033;28;20497;-74
2022/02/12 05:11:40;;;;;;;6.00;2.10;;;10.60;59.70;;;;;;5032640;28;20173;-74
2022/02/12 05:14:06;;;;;;;9.05;2.25;;;10.60;59.00;;;;;;5034789;28;20383;-74
2022/02/12 05:16:32;;;;;;;7.80;1.92;;;10.50;59.20;;;;;;5034279;28;20055;-73
2022/02/12 05:18:58;;;;;;;5.75;1.83;;;10.50;58.70;;;;;;5017831;28;20144;-73
2022/02/12 05:21:23;;;;;;;6.82;2.25;;;10.50;59.40;;;;;;5034825;28;20353;-74
2022/02/12 05:23:49;;;;;;;6.15;1.85;;;10.50;59.30;;;;;;5034478;28;20037;-74
2022/02/12 05:26:16;;;;;;;6.78;2.15;;;10.50;59.50;;;;;;5034744;28;20516;-74
2022/02/12 05:28:42;;;;;;;9.13;2.30;;;10.50;59.30;;;;;;5034528;28;20498;-75
2022/02/12 05:31:08;;;;;;;11.85;2.47;;;10.60;59.50;;;;;;5017106;28;20081;-74
2022/02/12 05:33:37;;;;;;;15.52;2.92;;;10.70;60.50;;;;;;5034596;28;20077;-75
2022/02/12 05:36:11;;;;;;;7.80;3.10;;;10.90;59.90;;;;;;5000892;28;20437;-76
2022/02/12 05:38:41;;;;;;;13.35;3.03;;;11.10;58.60;;;;;;5033299;28;20414;-76
2022/02/12 05:41:07;;;;;;;10.57;3.15;;;11.20;57.90;;;;;;5026676;28;20049;-72
2022/02/12 05:43:33;;;;;;;8.85;2.72;;;11.30;56.90;;;;;;5033557;28;20037;-74
2022/02/12 05:45:59;;;;;;;10.38;2.85;;;11.30;56.10;;;;;;5033444;28;20041;-76
2022/02/12 05:48:25;;;;;;;15.15;2.33;;;11.20;55.70;;;;;;5032977;28;20045;-74
2022/02/12 05:50:51;;;;;;;10.60;2.85;;;11.20;57.30;;;;;;5033846;28;20038;-77
2022/02/12 05:53:17;;;;;;;8.07;2.33;;;11.40;56.40;;;;;;5033616;28;20060;-75
2022/02/12 05:55:43;;;;;;;10.40;2.72;;;11.50;56.30;;;;;;5034215;28;20369;-76
2022/02/12 05:58:09;;;;;;;7.80;3.40;;;11.90;56.20;;;;;;5000501;28;20128;-75
2022/02/12 06:00:34;;;;;;;12.90;2.63;;;12.20;56.20;;;;;;5034022;28;20037;-75
2022/02/12 06:03:02;;;;;;;11.65;2.03;;;12.50;56.10;;;;;;5034022;28;20182;-78
2022/02/12 06:05:28;;;;;;;13.23;2.80;;;12.80;55.80;;;;;;5033051;28;20041;-75
2022/02/12 06:07:53;;;;;;;8.82;3.03;;;13.10;55.90;;;;;;5033672;28;20041;-76
2022/02/12 06:10:21;;;;;;;8.25;2.30;;;13.00;53.70;;;;;;5033721;28;20442;-74
2022/02/12 06:12:47;;;;;;;9.65;2.83;;;13.10;57.00;;;;;;5033283;28;20132;-74
2022/02/12 06:15:13;;;;;;;16.25;3.15;;;13.30;57.60;;;;;;5033457;28;20133;-74
2022/02/12 06:17:40;;;;;;;13.55;2.70;;;13.60;57.70;;;;;;5033216;28;20132;-74
2022/02/12 06:20:07;;;;;;;13.23;3.03;;;13.90;57.90;;;;;;5032977;28;20052;-74
2022/02/12 06:22:33;;;;;;;11.07;2.85;;;14.10;57.90;;;;;;5033640;28;20052;-76
2022/02/12 06:24:59;;;;;;;12.98;3.03;;;14.20;58.20;;;;;;5033686;28;20378;-74
2022/02/12 06:27:25;;;;;;;10.45;2.63;;;14.30;58.20;;;;;;5033064;28;20077;-74
2022/02/12 06:29:51;;;;;;;12.05;2.65;;;14.40;58.40;;;;;;5003922;28;20045;-74
2022/02/12 06:32:17;;;;;;;9.25;2.30;;;14.50;58.40;;;;;;5033184;28;20077;-73
2022/02/12 06:34:43;;;;;;;12.70;2.92;;;14.50;58.40;;;;;;5005020;28;20488;-74
2022/02/12 06:37:09;;;;;;;17.85;3.05;;;14.60;58.60;;;;;;5012959;28;20050;-73
2022/02/12 06:39:38;;;;;;;13.10;3.17;;;14.60;58.80;;;;;;5026587;28;20120;-75
2022/02/12 06:42:04;;;;;;;21.05;2.90;;;14.70;58.70;;;;;;5032122;28;20046;-74
2022/02/12 06:44:30;;;;;;;16.85;2.63;;;14.70;58.60;;;;;;5032658;28;20090;-74
2022/02/12 06:46:55;;;;;;;13.90;3.00;;;14.80;58.70;;;;;;5033170;28;20038;-75
2022/02/12 06:49:21;;;;;;;18.90;2.53;;;14.90;58.60;;;;;;5031893;28;20106;-76
2022/02/12 06:51:47;;;;;;;11.85;2.75;;;15.00;58.10;;;;;;5032595;28;20048;-73
2022/02/12 06:54:13;;;;;;;11.25;1.92;;;15.10;58.10;;;;;;5032319;28;20068;-74
2022/02/12 06:56:38;;;;;;;11.57;1.98;;;15.30;57.80;;;;;;5032737;28;20129;-76
2022/02/12 06:59:04;;;;;;;12.52;2.30;;;15.40;57.60;;;;;;5020177;28;20053;-75
2022/02/12 07:01:30;;;;;;;14.88;2.28;;;15.20;56.60;;;;;;5013787;28;20116;-76
2022/02/12 07:03:56;;;;;;;19.40;2.47;;;15.40;57.40;;;;;;5013471;28;20106;-78
2022/02/12 07:06:24;;;;;;;12.10;1.80;;;15.50;57.10;;;;;;5012277;28;20042;-77
2022/02/12 07:08:50;;;;;;;9.13;1.98;;;15.60;57.10;;;;;;5027377;28;20120;-76
2022/02/12 07:11:16;;;;;;;9.93;2.70;;;15.70;56.80;;;;;;5020052;28;20060;-76
2022/02/12 07:13:42;;;;;;;12.40;2.00;;;15.80;56.60;;;;;;5012785;28;20446;-75
2022/02/12 07:16:08;;;;;;;16.90;2.58;;;15.80;56.30;;;;;;5013229;28;20042;-75
2022/02/12 07:18:33;;;;;;;9.68;2.20;;;15.80;56.20;;;;;;5012763;28;20042;-74
2022/02/12 07:20:59;;;;;;;20.08;2.53;;;15.90;56.20;;;;;;5018163;28;20048;-76
2022/02/12 07:23:25;;;;;;;15.52;3.05;;;16.00;56.00;;;;;;5013634;28;20072;-74
2022/02/12 07:25:51;;;;;;;16.38;2.70;;;16.00;56.10;;;;;;5021551;28;20038;-73
2022/02/12 07:28:18;;;;;;;13.27;2.40;;;16.10;55.80;;;;;;5012527;28;20033;-73
2022/02/12 07:30:44;;;;;;;14.43;2.65;;;16.10;55.50;;;;;;5017577;28;20045;-74
2022/02/12 07:33:10;;;;;;;12.70;2.13;;;16.20;55.30;;;;;;5026394;28;20060;-73
2022/02/12 07:35:36;;;;;;;9.27;2.78;;;16.20;55.00;;;;;;5021580;28;20114;-74
2022/02/12 07:38:02;;;;;;;7.70;2.25;;;16.30;54.80;;;;;;5032109;28;20060;-76
2022/02/12 07:40:28;;;;;;;21.42;2.53;;;16.30;54.40;;;;;;5029660;28;20041;-75
2022/02/12 07:42:54;;;;;;;22.02;2.58;;;16.40;54.60;;;;;;5032015;28;20485;-75
2022/02/12 07:45:20;;;;;;;22.30;3.30;;;16.50;54.50;;;;;;5032052;28;20132;-78
2022/02/12 07:47:49;;;;;;;19.05;3.30;;;16.50;53.30;;;;;;5019894;28;20034;-76
2022/02/12 07:50:16;;;;;;;20.63;3.15;;;16.40;55.00;;;;;;5030875;28;20110;-79
2022/02/12 07:52:43;;;;;;;18.08;3.05;;;16.30;55.00;;;;;;5032181;28;20042;-76
2022/02/12 07:55:14;;;;;;;20.10;3.42;;;16.40;55.20;;;;;;5031874;28;20390;-75
2022/02/12 07:57:41;;;;;;;25.40;3.55;;;16.50;54.80;;;;;;5031896;28;20045;-75
2022/02/12 08:00:08;;;;;;;23.23;3.33;;;16.50;54.50;;;;;;5032246;28;20053;-76
2022/02/12 08:02:34;;;;;;;18.52;2.75;;;16.50;54.50;;;;;;5014687;28;20356;-72
2022/02/12 08:04:59;;;;;;;21.85;3.30;;;16.40;54.50;;;;;;5032241;28;20044;-77
2022/02/12 08:07:28;;;;;;;23.13;3.58;;;16.40;54.00;;;;;;5014086;28;20146;-76
2022/02/12 08:09:57;;;;;;;23.45;4.18;;;16.30;54.60;;;;;;5031136;28;20053;-78
2022/02/12 08:12:23;;;;;;;21.88;3.03;;;16.30;55.00;;;;;;5032187;28;20136;-73
2022/02/12 08:14:51;;;;;;;16.80;2.97;;;16.30;55.00;;;;;;5031984;28;20462;-74
2022/02/12 08:17:21;;;;;;;20.30;3.05;;;16.20;55.30;;;;;;5033785;28;20041;-75
2022/02/12 08:19:49;;;;;;;16.25;3.00;;;16.30;55.80;;;;;;5035394;28;20037;-74
2022/02/12 08:22:16;;;;;;;12.13;3.13;;;16.20;55.60;;;;;;5017702;28;20076;-77
2022/02/12 08:24:43;;;;;;;10.65;2.80;;;16.20;56.20;;;;;;5035113;28;20030;-79
2022/02/12 08:27:12;;;;;;;11.85;2.25;;;16.30;56.40;;;;;;5035010;28;20445;-77
2022/02/12 08:29:39;;;;;;;10.52;2.55;;;16.20;57.00;;;;;;5018238;28;20102;-74
2022/02/12 08:32:05;;;;;;;13.43;2.45;;;16.30;57.50;;;;;;5031832;28;20106;-74
2022/02/12 08:34:31;;;;;;;15.25;3.17;;;16.20;58.00;;;;;;4987043;28;20041;-74
2022/02/12 08:36:57;;;;;;;15.98;3.15;;;16.30;58.60;;;;;;5017666;28;20052;-73
2022/02/12 08:39:24;;;;;;;12.68;2.42;;;16.30;59.20;;;;;;4993407;28;20112;-75
2022/02/12 08:41:50;;;;;;;14.52;2.78;;;16.40;60.00;;;;;;5025609;28;20136;-75
2022/02/12 08:44:17;;;;;;;14.35;2.58;;;16.40;59.50;;;;;;5023599;28;20345;-75
2022/02/12 08:46:43;;;;;;;20.55;3.28;;;16.50;59.40;;;;;;5020395;28;20049;-75
2022/02/12 08:49:10;;;;;;;14.60;2.63;;;16.50;59.90;;;;;;5015145;28;20130;-75
2022/02/12 08:51:37;;;;;;;9.63;2.28;;;16.60;59.80;;;;;;5014766;28;20442;-74
2022/02/12 08:54:12;;;;;;;18.42;3.00;;;16.50;59.60;;;;;;4994558;28;20378;-72
2022/02/12 08:56:41;;;;;;;12.50;2.83;;;16.50;59.70;;;;;;4995703;28;20089;-73
2022/02/12 08:59:07;;;;;;;12.80;2.70;;;16.40;59.60;;;;;;4995659;28;20442;-74
2022/02/12 09:01:34;;;;;;;17.77;3.67;;;16.50;59.60;;;;;;4995392;28;20078;-76
2022/02/12 09:04:00;;;;;;;14.57;2.63;;;16.50;60.00;;;;;;5007633;28;20045;-74
2022/02/12 09:06:26;;;;;;;13.27;2.45;;;16.50;60.00;;;;;;5015357;28;20437;-74
2022/02/12 09:08:52;;;;;;;9.90;2.28;;;16.60;59.70;;;;;;5014811;28;20046;-74
2022/02/12 09:11:23;;;;;;;10.77;2.60;;;16.50;59.80;;;;;;5014735;28;20046;-74
2022/02/12 09:13:50;;;;;;;9.48;1.85;;;16.50;59.60;;;;;;5011847;28;20050;-74
2022/02/12 09:16:18;;;;;;;11.68;2.70;;;16.50;59.60;;;;;;5003399;28;20050;-73
2022/02/12 09:18:44;;;;;;;12.30;2.60;;;16.50;51.80;;;;;;5014658;28;20041;-74
2022/02/12 09:21:09;;;;;;;17.10;3.05;;;16.50;59.70;;;;;;5013600;28;20034;-75
2022/02/12 09:23:35;;;;;;;12.10;2.28;;;16.50;60.00;;;;;;5015073;28;20042;-75
2022/02/12 09:26:01;;;;;;;7.93;2.38;;;16.50;59.90;;;;;;5014541;28;20132;-74
2022/02/12 09:28:27;;;;;;;9.65;2.72;;;16.50;59.60;;;;;;4994444;28;20061;-73
2022/02/12 09:30:53;;;;;;;13.40;2.75;;;16.40;59.50;;;;;;4995730;28;20334;-74
2022/02/12 09:33:18;;;;;;;11.38;2.47;;;16.40;59.20;;;;;;4994883;28;20485;-74
2022/02/12 09:35:44;;;;;;;7.97;2.50;;;16.30;59.30;;;;;;4995024;28;20052;-75
2022/02/12 09:38:10;;;;;;;8.73;2.10;;;16.30;59.30;;;;;;4995038;28;20046;-74
2022/02/12 09:40:37;;;;;;;10.88;2.55;;;16.20;58.60;;;;;;4995014;28;20435;-74
2022/02/12 09:43:04;;;;;;;7.43;1.80;;;16.20;59.20;;;;;;4994939;28;20324;-74
2022/02/12 09:45:39;;;;;;;10.00;2.58;;;16.10;58.50;;;;;;4994766;28;20042;-74
2022/02/12 09:48:09;;;;;;;9.57;2.33;;;16.00;58.90;;;;;;4993957;28;20089;-74
2022/02/12 09:50:37;;;;;;;13.10;2.80;;;16.00;58.90;;;;;;4994813;28;20480;-74
2022/02/12 09:53:03;;;;;;;5.53;1.65;;;15.90;59.10;;;;;;4995993;28;20042;-74
2022/02/12 09:55:31;;;;;;;9.23;2.40;;;15.90;59.30;;;;;;5014189;28;20037;-75
2022/02/12 09:57:58;;;;;;;7.63;1.92;;;15.80;59.50;;;;;;5014280;28;20044;-75
2022/02/12 10:00:23;;;;;;;6.13;2.17;;;15.80;59.30;;;;;;5016425;28;20084;-75
2022/02/12 10:02:49;;;;;;;6.43;1.95;;;15.80;59.50;;;;;;5015090;28;20481;-75
2022/02/12 10:05:28;;;;;;;9.05;1.88;;;15.70;59.10;;;;;;5013851;28;20347;-75
2022/02/12 10:08:00;;;;;;;7.20;2.63;;;15.70;58.60;;;;;;5014546;28;20042;-74
2022/02/12 10:10:28;;;;;;;6.90;2.20;;;15.60;57.90;;;;;;5033458;28;20106;-74
2022/02/12 10:13:07;;;;;;;9.77;2.45;;;15.60;58.70;;;;;;5033664;28;20041;-74
2022/02/12 10:15:34;;;;;;;5.85;2.25;;;15.50;58.30;;;;;;5020129;28;20125;-74
2022/02/12 10:18:01;;;;;;;4.70;1.90;;;15.50;58.20;;;;;;4996876;28;20037;-74
2022/02/12 10:20:35;;;;;;;8.60;2.15;;;15.50;58.40;;;;;;5014335;28;20122;-74
2022/02/12 10:23:10;;;;;;;5.95;2.38;;;15.50;58.30;;;;;;5013818;28;20046;-74
2022/02/12 10:25:37;;;;;;;9.95;2.28;;;15.50;59.00;;;;;;4996562;28;20545;-74
2022/02/12 10:28:05;;;;;;;6.93;2.40;;;15.60;57.50;;;;;;5028730;28;20048;-72
2022/02/12 10:30:31;;;;;;;8.70;2.53;;;15.50;56.80;;;;;;5033740;28;20091;-72
2022/02/12 10:32:59;;;;;;;7.82;2.58;;;15.40;56.90;;;;;;5033463;28;20132;-73
2022/02/12 10:35:25;;;;;;;11.52;2.50;;;15.50;57.40;;;;;;5015451;28;20041;-73
2022/02/12 10:37:53;;;;;;;7.72;2.65;;;15.60;57.70;;;;;;5033849;28;20041;-73
2022/02/12 10:40:19;;;;;;;11.70;2.03;;;15.50;57.20;;;;;;5025022;28;20056;-74
2022/02/12 10:42:45;;;;;;;9.38;2.65;;;15.60;57.20;;;;;;5013513;28;20052;-74
2022/02/12 10:45:18;;;;;;;14.20;3.08;;;15.60;57.40;;;;;;5013309;28;20095;-76
2022/02/12 10:47:48;;;;;;;7.43;2.17;;;15.60;57.60;;;;;;5013716;28;20369;-76
2022/02/12 10:50:17;;;;;;;7.72;2.40;;;15.70;57.70;;;;;;5013651;28;20056;-74
2022/02/12 10:52:46;;;;;;;10.73;2.50;;;15.70;57.90;;;;;;5013227;28;20050;-74
2022/02/12 10:55:41;;;;;;;11.70;2.42;;;15.80;58.00;;;;;;5013104;28;20434;-73
2022/02/12 10:58:13;;;;;;;7.72;2.30;;;15.80;57.60;;;;;;5013225;28;20064;-74
2022/02/12 11:00:43;;;;;;;8.80;2.95;;;15.80;57.00;;;;;;5012636;28;20042;-83
2022/02/12 11:03:12;;;;;;;10.25;2.60;;;15.80;57.30;;;;;;5017650;28;20037;-75
2022/02/12 11:05:41;;;;;;;12.13;2.53;;;15.70;57.40;;;;;;5016160;28;20141;-73
2022/02/12 11:08:07;;;;;;;9.98;2.33;;;15.70;57.20;;;;;;5032568;28;20413;-76
2022/02/12 11:10:38;;;;;;;11.02;2.85;;;15.70;55.20;;;;;;5032723;28;20038;-76
2022/02/12 11:13:06;;;;;;;16.77;3.25;;;15.20;58.70;;;;;;5015599;28;20437;-79
2022/02/12 11:15:32;;;;;;;11.68;3.00;;;15.40;61.10;;;;;;5002249;28;20050;-80
2022/02/12 11:17:59;;;;;;;10.40;2.58;;;15.40;62.20;;;;;;4996089;28;20128;-80
2022/02/12 11:20:29;;;;;;;10.77;2.42;;;15.50;61.70;;;;;;4979775;28;20050;-81
2022/02/12 11:23:27;;;;;;;12.93;2.72;;;15.50;61.00;;;;;;4995752;28;20049;-80
2022/02/12 11:26:04;;;;;;;15.95;4.18;;;15.60;60.50;;;;;;4995403;28;20046;-76
2022/02/12 11:28:35;;;;;;;16.23;3.97;;;15.70;62.30;;;;;;5032376;28;20329;-74
2022/02/12 11:31:21;;;;;;;13.57;3.65;;;15.70;62.90;;;;;;5029694;28;20045;-79
2022/02/12 11:34:17;;;;;;;11.35;3.00;;;15.70;62.60;;;;;;4998681;28;20042;-76
2022/02/12 11:36:46;;;;;;;14.38;3.60;;;15.60;59.30;;;;;;5032406;28;20041;-74
2022/02/12 11:39:15;;;;;;;12.27;3.38;;;15.60;60.80;;;;;;5032581;28;20490;-78
2022/02/12 11:41:53;;;;;;;12.25;2.92;;;15.60;60.90;;;;;;5032231;28;20099;-74
2022/02/12 11:44:40;;;;;;;10.48;2.60;;;15.60;60.60;;;;;;5032447;28;20045;-74
2022/02/12 11:47:07;;;;;;;11.70;3.08;;;15.60;55.40;;;;;;5032283;28;20443;-75
2022/02/12 11:49:36;;;;;;;11.40;2.40;;;15.60;59.50;;;;;;5032388;28;20047;-73
2022/02/12 11:52:06;;;;;;;15.05;3.22;;;15.70;59.00;;;;;;5031692;28;20045;-75
2022/02/12 11:54:56;;;;;;;9.43;3.20;;;15.90;58.50;;;;;;5031924;28;20056;-74
2022/02/12 11:57:27;;;;;;;8.10;2.58;;;16.10;58.20;;;;;;5015215;28;20059;-72
2022/02/12 12:00:03;;;;;;;8.98;2.03;;;16.30;58.00;;;;;;5027730;28;20445;-74
2022/02/12 12:02:37;;;;;;;11.10;2.30;;;16.40;57.80;;;;;;5031705;28;20053;-75
2022/02/12 12:05:15;;;;;;;5.35;2.22;;;16.40;57.70;;;;;;5032041;28;20038;-75
2022/02/12 12:08:11;;;;;;;11.73;2.55;;;16.50;57.90;;;;;;5031816;28;20452;-74
2022/02/12 12:11:01;;;;;;;7.80;2.15;;;16.50;57.70;;;;;;5031711;28;20052;-74
2022/02/12 12:13:26;;;;;;;8.48;1.85;;;16.50;57.90;;;;;;5029218;28;20094;-74
2022/02/12 12:16:13;;;;;;;10.80;2.45;;;16.50;57.70;;;;;;5014649;28;20453;-76
2022/02/12 12:18:43;;;;;;;11.65;2.65;;;16.50;57.50;;;;;;5031631;28;20042;-75
2022/02/12 12:21:16;;;;;;;13.98;2.55;;;16.50;57.60;;;;;;5031997;28;20037;-76
2022/02/12 12:23:43;;;;;;;17.63;2.50;;;16.50;57.80;;;;;;5028252;28;20473;-75
2022/02/12 12:26:11;;;;;;;14.65;2.63;;;16.50;57.80;;;;;;5013985;28;20048;-77
2022/02/12 12:28:41;;;;;;;14.07;2.60;;;16.50;58.10;;;;;;5031698;28;20181;-77
2022/02/12 12:31:14;;;;;;;9.00;2.38;;;16.50;58.00;;;;;;5030590;28;20479;-77
2022/02/12 12:33:44;;;;;;;10.55;1.77;;;16.60;57.90;;;;;;5027119;28;20127;-77
2022/02/12 12:36:12;;;;;;;11.13;1.95;;;16.60;57.80;;;;;;5020508;28;20038;-75
2022/02/12 12:38:42;;;;;;;11.38;2.50;;;16.60;57.70;;;;;;5031607;28;20038;-76
2022/02/12 12:41:34;;;;;;;12.52;2.42;;;16.70;57.70;;;;;;5016037;28;20480;-77
2022/02/12 12:44:12;;;;;;;8.75;2.55;;;16.70;57.60;;;;;;5011740;28;20438;-76
2022/02/12 12:46:40;;;;;;;24.30;3.42;;;16.90;57.00;;;;;;5012702;28;20046;-76
2022/02/12 12:49:06;;;;;;;12.40;2.53;;;16.90;56.50;;;;;;5011514;28;20047;-76
2022/02/12 12:51:32;;;;;;;16.80;2.67;;;16.90;56.50;;;;;;5019805;28;20116;-76